<?xml version="1.0" encoding="UTF-8" standalone="no" ?>
<gpx xmlns="http://www.topografix.com/GPX/1/1" xmlns:xsi="http://www.w3.org/2001/XMLSchema-instance" xsi:schemaLocation="http://www.topografix.com/GPX/1/1 http://www.topografix.com/GPX/1/1/gpx.xsd" version="1.1" creator="VisuGPX - https://www.visugpx.com">
  <metadata>
    <name>Col de Bougnon</name>
    <desc><![CDATA[Rando circulaire  tour des petites Maures au départ du parking du tir a l arc au col de Bougnon.]]></desc>
  </metadata>
  <trk>
    <name><![CDATA[ACTIVE LOG- 11 AOU 2011 11-34-F-MNT]]></name>
    <trkseg>
      <trkpt lat="43.36345" lon="6.67305">
        <ele>158.098251</ele>
        <time>2011-08-11T09:34:35Z</time>
      </trkpt>
      <trkpt lat="43.36345" lon="6.67343">
        <ele>159.820572</ele>
        <time>2011-08-11T09:54:05Z</time>
      </trkpt>
      <trkpt lat="43.3639" lon="6.67357">
        <ele>159.0625</ele>
        <time>2011-08-11T09:54:17Z</time>
      </trkpt>
      <trkpt lat="43.36441" lon="6.67396">
        <ele>159.192398</ele>
        <time>2011-08-11T09:54:25Z</time>
      </trkpt>
      <trkpt lat="43.36485" lon="6.67405">
        <ele>154.972946</ele>
        <time>2011-08-11T09:54:31Z</time>
      </trkpt>
      <trkpt lat="43.36535" lon="6.67409">
        <ele>146.485886</ele>
        <time>2011-08-11T09:54:38Z</time>
      </trkpt>
      <trkpt lat="43.3657" lon="6.6746">
        <ele>153.987</ele>
        <time>2011-08-11T09:54:45Z</time>
      </trkpt>
      <trkpt lat="43.3661" lon="6.67427">
        <ele>139.525497</ele>
        <time>2011-08-11T09:54:53Z</time>
      </trkpt>
      <trkpt lat="43.36652" lon="6.67451">
        <ele>136.083405</ele>
        <time>2011-08-11T09:55:00Z</time>
      </trkpt>
      <trkpt lat="43.36672" lon="6.67511">
        <ele>135.589188</ele>
        <time>2011-08-11T09:55:05Z</time>
      </trkpt>
      <trkpt lat="43.36688" lon="6.67578">
        <ele>129.869003</ele>
        <time>2011-08-11T09:55:10Z</time>
      </trkpt>
      <trkpt lat="43.36691" lon="6.67643">
        <ele>129.881561</ele>
        <time>2011-08-11T09:55:15Z</time>
      </trkpt>
      <trkpt lat="43.36731" lon="6.67677">
        <ele>129.196869</ele>
        <time>2011-08-11T09:55:22Z</time>
      </trkpt>
      <trkpt lat="43.36754" lon="6.67722">
        <ele>135.166794</ele>
        <time>2011-08-11T09:55:58Z</time>
      </trkpt>
      <trkpt lat="43.36765" lon="6.67782">
        <ele>141.555008</ele>
        <time>2011-08-11T09:56:30Z</time>
      </trkpt>
      <trkpt lat="43.36769" lon="6.67844">
        <ele>150.776566</ele>
        <time>2011-08-11T09:57:10Z</time>
      </trkpt>
      <trkpt lat="43.36766" lon="6.67905">
        <ele>157.684998</ele>
        <time>2011-08-11T09:58:19Z</time>
      </trkpt>
      <trkpt lat="43.36765" lon="6.67963">
        <ele>157.884995</ele>
        <time>2011-08-11T09:59:59Z</time>
      </trkpt>
      <trkpt lat="43.36729" lon="6.68">
        <ele>158.27179</ele>
        <time>2011-08-11T10:00:26Z</time>
      </trkpt>
      <trkpt lat="43.36695" lon="6.68037">
        <ele>164.36145</ele>
        <time>2011-08-11T10:00:41Z</time>
      </trkpt>
      <trkpt lat="43.36713" lon="6.68098">
        <ele>160.72406</ele>
        <time>2011-08-11T10:00:56Z</time>
      </trkpt>
      <trkpt lat="43.36717" lon="6.68155">
        <ele>158.315002</ele>
        <time>2011-08-11T10:01:09Z</time>
      </trkpt>
      <trkpt lat="43.36687" lon="6.68207">
        <ele>158.604355</ele>
        <time>2011-08-11T10:01:20Z</time>
      </trkpt>
      <trkpt lat="43.36646" lon="6.68243">
        <ele>155.323425</ele>
        <time>2011-08-11T10:01:30Z</time>
      </trkpt>
      <trkpt lat="43.36603" lon="6.6822">
        <ele>155.722549</ele>
        <time>2011-08-11T10:01:40Z</time>
      </trkpt>
      <trkpt lat="43.36561" lon="6.68196">
        <ele>153.062393</ele>
        <time>2011-08-11T10:01:50Z</time>
      </trkpt>
      <trkpt lat="43.3653" lon="6.68144">
        <ele>159.82341</ele>
        <time>2011-08-11T10:02:01Z</time>
      </trkpt>
      <trkpt lat="43.36483" lon="6.6813">
        <ele>156.834</ele>
        <time>2011-08-11T10:02:11Z</time>
      </trkpt>
      <trkpt lat="43.3644" lon="6.68128">
        <ele>164.753998</ele>
        <time>2011-08-11T10:02:19Z</time>
      </trkpt>
      <trkpt lat="43.3644" lon="6.68191">
        <ele>161.180496</ele>
        <time>2011-08-11T10:02:31Z</time>
      </trkpt>
      <trkpt lat="43.36449" lon="6.6826">
        <ele>155.740601</ele>
        <time>2011-08-11T10:02:43Z</time>
      </trkpt>
      <trkpt lat="43.36433" lon="6.68322">
        <ele>153.230942</ele>
        <time>2011-08-11T10:03:17Z</time>
      </trkpt>
      <trkpt lat="43.3639" lon="6.68352">
        <ele>156.502762</ele>
        <time>2011-08-11T10:03:26Z</time>
      </trkpt>
      <trkpt lat="43.36352" lon="6.68381">
        <ele>156.762497</ele>
        <time>2011-08-11T10:03:34Z</time>
      </trkpt>
      <trkpt lat="43.36351" lon="6.6844">
        <ele>156.404099</ele>
        <time>2011-08-11T10:03:51Z</time>
      </trkpt>
      <trkpt lat="43.36399" lon="6.68466">
        <ele>152.156372</ele>
        <time>2011-08-11T10:04:00Z</time>
      </trkpt>
      <trkpt lat="43.36443" lon="6.68494">
        <ele>148.693161</ele>
        <time>2011-08-11T10:04:07Z</time>
      </trkpt>
      <trkpt lat="43.36493" lon="6.68501">
        <ele>136.830399</ele>
        <time>2011-08-11T10:04:13Z</time>
      </trkpt>
      <trkpt lat="43.36526" lon="6.68549">
        <ele>134.920898</ele>
        <time>2011-08-11T10:04:19Z</time>
      </trkpt>
      <trkpt lat="43.36544" lon="6.68608">
        <ele>137.510162</ele>
        <time>2011-08-11T10:04:24Z</time>
      </trkpt>
      <trkpt lat="43.36579" lon="6.68666">
        <ele>129.880295</ele>
        <time>2011-08-11T10:04:30Z</time>
      </trkpt>
      <trkpt lat="43.36603" lon="6.68731">
        <ele>123.922318</ele>
        <time>2011-08-11T10:04:35Z</time>
      </trkpt>
      <trkpt lat="43.3662" lon="6.68798">
        <ele>118.770622</ele>
        <time>2011-08-11T10:04:40Z</time>
      </trkpt>
      <trkpt lat="43.36608" lon="6.68861">
        <ele>115.009796</ele>
        <time>2011-08-11T10:04:47Z</time>
      </trkpt>
      <trkpt lat="43.36571" lon="6.689">
        <ele>114.59375</ele>
        <time>2011-08-11T10:04:54Z</time>
      </trkpt>
      <trkpt lat="43.36545" lon="6.68951">
        <ele>104.964821</ele>
        <time>2011-08-11T10:05:01Z</time>
      </trkpt>
      <trkpt lat="43.36502" lon="6.68977">
        <ele>100.649841</ele>
        <time>2011-08-11T10:05:10Z</time>
      </trkpt>
      <trkpt lat="43.36457" lon="6.68969">
        <ele>108.985001</ele>
        <time>2011-08-11T10:05:21Z</time>
      </trkpt>
      <trkpt lat="43.36445" lon="6.69038">
        <ele>100.096313</ele>
        <time>2011-08-11T10:05:28Z</time>
      </trkpt>
      <trkpt lat="43.36454" lon="6.69096">
        <ele>101.039398</ele>
        <time>2011-08-11T10:05:36Z</time>
      </trkpt>
      <trkpt lat="43.365" lon="6.69082">
        <ele>92.503624</ele>
        <time>2011-08-11T10:05:46Z</time>
      </trkpt>
      <trkpt lat="43.36551" lon="6.69074">
        <ele>82.176186</ele>
        <time>2011-08-11T10:05:53Z</time>
      </trkpt>
      <trkpt lat="43.36598" lon="6.69107">
        <ele>74.797951</ele>
        <time>2011-08-11T10:05:59Z</time>
      </trkpt>
      <trkpt lat="43.36622" lon="6.69168">
        <ele>72.08683</ele>
        <time>2011-08-11T10:06:05Z</time>
      </trkpt>
      <trkpt lat="43.36632" lon="6.69236">
        <ele>69.848061</ele>
        <time>2011-08-11T10:06:11Z</time>
      </trkpt>
      <trkpt lat="43.36662" lon="6.69295">
        <ele>63.081062</ele>
        <time>2011-08-11T10:06:17Z</time>
      </trkpt>
      <trkpt lat="43.36687" lon="6.69351">
        <ele>57.570812</ele>
        <time>2011-08-11T10:06:23Z</time>
      </trkpt>
      <trkpt lat="43.36719" lon="6.69384">
        <ele>55.07</ele>
        <time>2011-08-11T10:06:32Z</time>
      </trkpt>
      <trkpt lat="43.36762" lon="6.6941">
        <ele>49.573025</ele>
        <time>2011-08-11T10:06:39Z</time>
      </trkpt>
      <trkpt lat="43.36787" lon="6.69457">
        <ele>52.366444</ele>
        <time>2011-08-11T10:06:47Z</time>
      </trkpt>
      <trkpt lat="43.36838" lon="6.6947">
        <ele>41.856232</ele>
        <time>2011-08-11T10:06:55Z</time>
      </trkpt>
      <trkpt lat="43.36855" lon="6.69528">
        <ele>44.507</ele>
        <time>2011-08-11T10:07:39Z</time>
      </trkpt>
      <trkpt lat="43.36874" lon="6.69585">
        <ele>40.751011</ele>
        <time>2011-08-11T10:07:46Z</time>
      </trkpt>
      <trkpt lat="43.36884" lon="6.69652">
        <ele>37.327499</ele>
        <time>2011-08-11T10:07:52Z</time>
      </trkpt>
      <trkpt lat="43.36884" lon="6.69717">
        <ele>33.945095</ele>
        <time>2011-08-11T10:07:57Z</time>
      </trkpt>
      <trkpt lat="43.36878" lon="6.69784">
        <ele>31.51795</ele>
        <time>2011-08-11T10:08:02Z</time>
      </trkpt>
      <trkpt lat="43.36877" lon="6.6985">
        <ele>26.434574</ele>
        <time>2011-08-11T10:08:07Z</time>
      </trkpt>
      <trkpt lat="43.36889" lon="6.69906">
        <ele>22.73625</ele>
        <time>2011-08-11T10:08:19Z</time>
      </trkpt>
      <trkpt lat="43.36895" lon="6.69967">
        <ele>20.467501</ele>
        <time>2011-08-11T10:08:30Z</time>
      </trkpt>
      <trkpt lat="43.36893" lon="6.70033">
        <ele>18.126499</ele>
        <time>2011-08-11T10:08:39Z</time>
      </trkpt>
      <trkpt lat="43.36881" lon="6.70093">
        <ele>17.527187</ele>
        <time>2011-08-11T10:08:49Z</time>
      </trkpt>
      <trkpt lat="43.36848" lon="6.70144">
        <ele>17.539791</ele>
        <time>2011-08-11T10:08:59Z</time>
      </trkpt>
      <trkpt lat="43.36851" lon="6.70136">
        <ele>17.927656</ele>
        <time>2011-08-11T10:09:45Z</time>
      </trkpt>
      <trkpt lat="43.36882" lon="6.70085">
        <ele>17.628626</ele>
        <time>2011-08-11T10:09:58Z</time>
      </trkpt>
      <trkpt lat="43.36887" lon="6.70025">
        <ele>19.660175</ele>
        <time>2011-08-11T10:10:24Z</time>
      </trkpt>
      <trkpt lat="43.3689" lon="6.69961">
        <ele>21.6775</ele>
        <time>2011-08-11T10:10:41Z</time>
      </trkpt>
      <trkpt lat="43.36882" lon="6.69895">
        <ele>24.249725</ele>
        <time>2011-08-11T10:10:54Z</time>
      </trkpt>
      <trkpt lat="43.36899" lon="6.69837">
        <ele>23.147356</ele>
        <time>2011-08-11T10:11:07Z</time>
      </trkpt>
      <trkpt lat="43.36926" lon="6.6988">
        <ele>26.873188</ele>
        <time>2011-08-11T10:11:53Z</time>
      </trkpt>
      <trkpt lat="43.36953" lon="6.69925">
        <ele>27.334188</ele>
        <time>2011-08-11T10:12:14Z</time>
      </trkpt>
      <trkpt lat="43.36988" lon="6.69891">
        <ele>35.380157</ele>
        <time>2011-08-11T10:12:47Z</time>
      </trkpt>
      <trkpt lat="43.37002" lon="6.69832">
        <ele>40.849178</ele>
        <time>2011-08-11T10:13:21Z</time>
      </trkpt>
      <trkpt lat="43.37023" lon="6.69778">
        <ele>43.703281</ele>
        <time>2011-08-11T10:13:55Z</time>
      </trkpt>
      <trkpt lat="43.3706" lon="6.69736">
        <ele>49.119625</ele>
        <time>2011-08-11T10:15:30Z</time>
      </trkpt>
      <trkpt lat="43.37083" lon="6.69684">
        <ele>56.583813</ele>
        <time>2011-08-11T10:16:01Z</time>
      </trkpt>
      <trkpt lat="43.37109" lon="6.69634">
        <ele>62.323223</ele>
        <time>2011-08-11T10:16:32Z</time>
      </trkpt>
      <trkpt lat="43.3715" lon="6.69613">
        <ele>68.451721</ele>
        <time>2011-08-11T10:17:00Z</time>
      </trkpt>
      <trkpt lat="43.37184" lon="6.69586">
        <ele>68.952751</ele>
        <time>2011-08-11T10:17:33Z</time>
      </trkpt>
      <trkpt lat="43.3722" lon="6.69617">
        <ele>74.369812</ele>
        <time>2011-08-11T10:18:04Z</time>
      </trkpt>
      <trkpt lat="43.3726" lon="6.69651">
        <ele>79.748909</ele>
        <time>2011-08-11T10:18:30Z</time>
      </trkpt>
      <trkpt lat="43.37297" lon="6.69688">
        <ele>79.795097</ele>
        <time>2011-08-11T10:18:51Z</time>
      </trkpt>
      <trkpt lat="43.37334" lon="6.69723">
        <ele>82.065384</ele>
        <time>2011-08-11T10:19:18Z</time>
      </trkpt>
      <trkpt lat="43.37348" lon="6.6978">
        <ele>87.400139</ele>
        <time>2011-08-11T10:20:21Z</time>
      </trkpt>
      <trkpt lat="43.37394" lon="6.69788">
        <ele>95.766151</ele>
        <time>2011-08-11T10:20:58Z</time>
      </trkpt>
      <trkpt lat="43.37438" lon="6.698">
        <ele>99.768784</ele>
        <time>2011-08-11T10:21:35Z</time>
      </trkpt>
      <trkpt lat="43.37473" lon="6.69842">
        <ele>106.406822</ele>
        <time>2011-08-11T10:22:15Z</time>
      </trkpt>
      <trkpt lat="43.37499" lon="6.69895">
        <ele>114.355049</ele>
        <time>2011-08-11T10:22:57Z</time>
      </trkpt>
      <trkpt lat="43.37518" lon="6.69951">
        <ele>118.219635</ele>
        <time>2011-08-11T10:25:04Z</time>
      </trkpt>
      <trkpt lat="43.37551" lon="6.7">
        <ele>120.063782</ele>
        <time>2011-08-11T10:25:30Z</time>
      </trkpt>
      <trkpt lat="43.37592" lon="6.69998">
        <ele>122.530273</ele>
        <time>2011-08-11T10:32:48Z</time>
      </trkpt>
      <trkpt lat="43.37638" lon="6.6998">
        <ele>122.323662</ele>
        <time>2011-08-11T10:33:23Z</time>
      </trkpt>
      <trkpt lat="43.37683" lon="6.69958">
        <ele>120.005959</ele>
        <time>2011-08-11T10:33:41Z</time>
      </trkpt>
      <trkpt lat="43.37724" lon="6.69938">
        <ele>123.488884</ele>
        <time>2011-08-11T10:33:56Z</time>
      </trkpt>
      <trkpt lat="43.37753" lon="6.69988">
        <ele>121.70237</ele>
        <time>2011-08-11T10:34:54Z</time>
      </trkpt>
      <trkpt lat="43.37793" lon="6.70018">
        <ele>126.706139</ele>
        <time>2011-08-11T10:35:43Z</time>
      </trkpt>
      <trkpt lat="43.37835" lon="6.70028">
        <ele>131.672745</ele>
        <time>2011-08-11T10:37:08Z</time>
      </trkpt>
      <trkpt lat="43.37878" lon="6.70053">
        <ele>128.559372</ele>
        <time>2011-08-11T10:37:29Z</time>
      </trkpt>
      <trkpt lat="43.37899" lon="6.70104">
        <ele>125.652702</ele>
        <time>2011-08-11T10:37:44Z</time>
      </trkpt>
      <trkpt lat="43.37931" lon="6.70152">
        <ele>127.443565</ele>
        <time>2011-08-11T10:37:59Z</time>
      </trkpt>
      <trkpt lat="43.37975" lon="6.70141">
        <ele>125.583122</ele>
        <time>2011-08-11T10:38:11Z</time>
      </trkpt>
      <trkpt lat="43.38022" lon="6.70104">
        <ele>120.053658</ele>
        <time>2011-08-11T10:38:21Z</time>
      </trkpt>
      <trkpt lat="43.38061" lon="6.70078">
        <ele>113.016747</ele>
        <time>2011-08-11T10:38:32Z</time>
      </trkpt>
      <trkpt lat="43.38106" lon="6.7007">
        <ele>108.130974</ele>
        <time>2011-08-11T10:38:52Z</time>
      </trkpt>
      <trkpt lat="43.38151" lon="6.70075">
        <ele>102.1035</ele>
        <time>2011-08-11T10:39:15Z</time>
      </trkpt>
      <trkpt lat="43.38198" lon="6.70071">
        <ele>96.028572</ele>
        <time>2011-08-11T10:39:29Z</time>
      </trkpt>
      <trkpt lat="43.38241" lon="6.70062">
        <ele>89.748001</ele>
        <time>2011-08-11T10:39:44Z</time>
      </trkpt>
      <trkpt lat="43.38285" lon="6.70065">
        <ele>94.998566</ele>
        <time>2011-08-11T10:42:12Z</time>
      </trkpt>
      <trkpt lat="43.38317" lon="6.70052">
        <ele>104.428749</ele>
        <time>2011-08-11T10:43:01Z</time>
      </trkpt>
      <trkpt lat="43.38287" lon="6.70009">
        <ele>110.372498</ele>
        <time>2011-08-11T10:44:27Z</time>
      </trkpt>
      <trkpt lat="43.38277" lon="6.69954">
        <ele>117.911469</ele>
        <time>2011-08-11T10:45:22Z</time>
      </trkpt>
      <trkpt lat="43.38291" lon="6.69893">
        <ele>126.899063</ele>
        <time>2011-08-11T10:46:22Z</time>
      </trkpt>
      <trkpt lat="43.38315" lon="6.69842">
        <ele>131.935959</ele>
        <time>2011-08-11T10:46:56Z</time>
      </trkpt>
      <trkpt lat="43.38344" lon="6.69795">
        <ele>139.173965</ele>
        <time>2011-08-11T10:48:33Z</time>
      </trkpt>
      <trkpt lat="43.38369" lon="6.69746">
        <ele>140.4664</ele>
        <time>2011-08-11T10:49:54Z</time>
      </trkpt>
      <trkpt lat="43.3839" lon="6.69688">
        <ele>144.175003</ele>
        <time>2011-08-11T10:50:30Z</time>
      </trkpt>
      <trkpt lat="43.38394" lon="6.69629">
        <ele>145.419357</ele>
        <time>2011-08-11T10:51:05Z</time>
      </trkpt>
      <trkpt lat="43.38393" lon="6.69567">
        <ele>149.335938</ele>
        <time>2011-08-11T10:51:41Z</time>
      </trkpt>
      <trkpt lat="43.38392" lon="6.69506">
        <ele>157.102005</ele>
        <time>2011-08-11T10:53:28Z</time>
      </trkpt>
      <trkpt lat="43.38396" lon="6.69446">
        <ele>163.130005</ele>
        <time>2011-08-11T10:55:30Z</time>
      </trkpt>
      <trkpt lat="43.38412" lon="6.69384">
        <ele>170.189072</ele>
        <time>2011-08-11T10:56:52Z</time>
      </trkpt>
      <trkpt lat="43.38407" lon="6.69322">
        <ele>181.509628</ele>
        <time>2011-08-11T10:59:26Z</time>
      </trkpt>
      <trkpt lat="43.38387" lon="6.6927">
        <ele>187.895691</ele>
        <time>2011-08-11T11:01:46Z</time>
      </trkpt>
      <trkpt lat="43.38375" lon="6.69212">
        <ele>200.394913</ele>
        <time>2011-08-11T11:03:37Z</time>
      </trkpt>
      <trkpt lat="43.38385" lon="6.69186">
        <ele>204.28331</ele>
        <time>2011-08-11T11:05:49Z</time>
      </trkpt>
      <trkpt lat="43.38415" lon="6.69144">
        <ele>206.101547</ele>
        <time>2011-08-11T11:05:59Z</time>
      </trkpt>
      <trkpt lat="43.38463" lon="6.69115">
        <ele>203.021255</ele>
        <time>2011-08-11T11:06:06Z</time>
      </trkpt>
      <trkpt lat="43.38508" lon="6.69095">
        <ele>200.399399</ele>
        <time>2011-08-11T11:06:12Z</time>
      </trkpt>
      <trkpt lat="43.38555" lon="6.69087">
        <ele>200.795151</ele>
        <time>2011-08-11T11:06:20Z</time>
      </trkpt>
      <trkpt lat="43.38596" lon="6.69085">
        <ele>203.805893</ele>
        <time>2011-08-11T11:06:52Z</time>
      </trkpt>
      <trkpt lat="43.38642" lon="6.69094">
        <ele>207.327438</ele>
        <time>2011-08-11T11:07:23Z</time>
      </trkpt>
      <trkpt lat="43.38683" lon="6.69117">
        <ele>209.616241</ele>
        <time>2011-08-11T11:07:42Z</time>
      </trkpt>
      <trkpt lat="43.38724" lon="6.69146">
        <ele>210.776001</ele>
        <time>2011-08-11T11:09:04Z</time>
      </trkpt>
      <trkpt lat="43.38761" lon="6.69183">
        <ele>208.986755</ele>
        <time>2011-08-11T11:09:19Z</time>
      </trkpt>
      <trkpt lat="43.3874" lon="6.69164">
        <ele>209.458542</ele>
        <time>2011-08-11T11:09:43Z</time>
      </trkpt>
      <trkpt lat="43.38713" lon="6.69126">
        <ele>212.702545</ele>
        <time>2011-08-11T11:10:41Z</time>
      </trkpt>
      <trkpt lat="43.38752" lon="6.69107">
        <ele>220.878357</ele>
        <time>2011-08-11T11:11:46Z</time>
      </trkpt>
      <trkpt lat="43.38797" lon="6.69128">
        <ele>221.746918</ele>
        <time>2011-08-11T11:12:15Z</time>
      </trkpt>
      <trkpt lat="43.38835" lon="6.69125">
        <ele>220.519501</ele>
        <time>2011-08-11T11:12:34Z</time>
      </trkpt>
      <trkpt lat="43.38874" lon="6.69096">
        <ele>216.445953</ele>
        <time>2011-08-11T11:13:20Z</time>
      </trkpt>
      <trkpt lat="43.38916" lon="6.69064">
        <ele>211.04213</ele>
        <time>2011-08-11T11:13:51Z</time>
      </trkpt>
      <trkpt lat="43.3896" lon="6.69046">
        <ele>203.182419</ele>
        <time>2011-08-11T11:14:10Z</time>
      </trkpt>
      <trkpt lat="43.39004" lon="6.69035">
        <ele>195.782501</ele>
        <time>2011-08-11T11:14:37Z</time>
      </trkpt>
      <trkpt lat="43.3905" lon="6.69015">
        <ele>186.766907</ele>
        <time>2011-08-11T11:15:05Z</time>
      </trkpt>
      <trkpt lat="43.39092" lon="6.68992">
        <ele>179.964584</ele>
        <time>2011-08-11T11:15:33Z</time>
      </trkpt>
      <trkpt lat="43.39131" lon="6.68958">
        <ele>169.621002</ele>
        <time>2011-08-11T11:16:29Z</time>
      </trkpt>
      <trkpt lat="43.39169" lon="6.68934">
        <ele>161.598999</ele>
        <time>2011-08-11T11:17:03Z</time>
      </trkpt>
      <trkpt lat="43.39213" lon="6.6892">
        <ele>154.302216</ele>
        <time>2011-08-11T11:17:19Z</time>
      </trkpt>
      <trkpt lat="43.39262" lon="6.68923">
        <ele>148.262497</ele>
        <time>2011-08-11T11:17:34Z</time>
      </trkpt>
      <trkpt lat="43.39305" lon="6.68908">
        <ele>142.243301</ele>
        <time>2011-08-11T11:17:55Z</time>
      </trkpt>
      <trkpt lat="43.39347" lon="6.68888">
        <ele>138.001602</ele>
        <time>2011-08-11T11:18:08Z</time>
      </trkpt>
      <trkpt lat="43.39392" lon="6.68908">
        <ele>127.699997</ele>
        <time>2011-08-11T11:18:22Z</time>
      </trkpt>
      <trkpt lat="43.39438" lon="6.68926">
        <ele>119.004852</ele>
        <time>2011-08-11T11:18:36Z</time>
      </trkpt>
      <trkpt lat="43.39484" lon="6.68897">
        <ele>115.906044</ele>
        <time>2011-08-11T11:18:51Z</time>
      </trkpt>
      <trkpt lat="43.39524" lon="6.68863">
        <ele>108.004303</ele>
        <time>2011-08-11T11:19:07Z</time>
      </trkpt>
      <trkpt lat="43.39524" lon="6.68804">
        <ele>106.448914</ele>
        <time>2011-08-11T11:19:36Z</time>
      </trkpt>
      <trkpt lat="43.39497" lon="6.6876">
        <ele>106.5513</ele>
        <time>2011-08-11T11:19:51Z</time>
      </trkpt>
      <trkpt lat="43.39469" lon="6.68701">
        <ele>102.454979</ele>
        <time>2011-08-11T11:20:00Z</time>
      </trkpt>
      <trkpt lat="43.39443" lon="6.68673">
        <ele>102.018051</ele>
        <time>2011-08-11T11:20:31Z</time>
      </trkpt>
      <trkpt lat="43.39466" lon="6.6864">
        <ele>95.995003</ele>
        <time>2011-08-11T11:20:46Z</time>
      </trkpt>
      <trkpt lat="43.39477" lon="6.68579">
        <ele>88.467903</ele>
        <time>2011-08-11T11:20:54Z</time>
      </trkpt>
      <trkpt lat="43.39478" lon="6.68523">
        <ele>86.928009</ele>
        <time>2011-08-11T11:21:46Z</time>
      </trkpt>
      <trkpt lat="43.39443" lon="6.68518">
        <ele>86.332001</ele>
        <time>2011-08-11T11:24:38Z</time>
      </trkpt>
      <trkpt lat="43.39406" lon="6.68474">
        <ele>82.6604</ele>
        <time>2011-08-11T11:24:46Z</time>
      </trkpt>
      <trkpt lat="43.39379" lon="6.68422">
        <ele>78.548798</ele>
        <time>2011-08-11T11:24:57Z</time>
      </trkpt>
      <trkpt lat="43.39359" lon="6.68365">
        <ele>74.744965</ele>
        <time>2011-08-11T11:25:09Z</time>
      </trkpt>
      <trkpt lat="43.39325" lon="6.68342">
        <ele>72.002274</ele>
        <time>2011-08-11T11:25:26Z</time>
      </trkpt>
      <trkpt lat="43.39321" lon="6.68294">
        <ele>70.596405</ele>
        <time>2011-08-11T11:25:43Z</time>
      </trkpt>
      <trkpt lat="43.3929" lon="6.6825">
        <ele>76.358032</ele>
        <time>2011-08-11T11:26:16Z</time>
      </trkpt>
      <trkpt lat="43.39272" lon="6.682">
        <ele>76.594322</ele>
        <time>2011-08-11T11:26:47Z</time>
      </trkpt>
      <trkpt lat="43.39293" lon="6.68147">
        <ele>74.601418</ele>
        <time>2011-08-11T11:27:14Z</time>
      </trkpt>
      <trkpt lat="43.39324" lon="6.681">
        <ele>77.015472</ele>
        <time>2011-08-11T11:27:35Z</time>
      </trkpt>
      <trkpt lat="43.39326" lon="6.68036">
        <ele>80.102081</ele>
        <time>2011-08-11T11:28:00Z</time>
      </trkpt>
      <trkpt lat="43.39331" lon="6.67976">
        <ele>76.582504</ele>
        <time>2011-08-11T11:28:18Z</time>
      </trkpt>
      <trkpt lat="43.39313" lon="6.67916">
        <ele>69.569191</ele>
        <time>2011-08-11T11:28:43Z</time>
      </trkpt>
      <trkpt lat="43.39302" lon="6.67866">
        <ele>61.919033</ele>
        <time>2011-08-11T11:29:59Z</time>
      </trkpt>
      <trkpt lat="43.39317" lon="6.67815">
        <ele>53.664837</ele>
        <time>2011-08-11T11:31:54Z</time>
      </trkpt>
      <trkpt lat="43.39327" lon="6.67767">
        <ele>44.665939</ele>
        <time>2011-08-11T11:33:38Z</time>
      </trkpt>
      <trkpt lat="43.39318" lon="6.6772">
        <ele>36.638226</ele>
        <time>2011-08-11T11:34:52Z</time>
      </trkpt>
      <trkpt lat="43.39283" lon="6.67684">
        <ele>25.438675</ele>
        <time>2011-08-11T11:36:33Z</time>
      </trkpt>
      <trkpt lat="43.39247" lon="6.67669">
        <ele>22.25275</ele>
        <time>2011-08-11T11:37:39Z</time>
      </trkpt>
      <trkpt lat="43.3922" lon="6.67643">
        <ele>19.976576</ele>
        <time>2011-08-11T11:38:36Z</time>
      </trkpt>
      <trkpt lat="43.3925" lon="6.67624">
        <ele>20.899624</ele>
        <time>2011-08-11T11:39:26Z</time>
      </trkpt>
      <trkpt lat="43.39297" lon="6.67617">
        <ele>21.741274</ele>
        <time>2011-08-11T11:40:12Z</time>
      </trkpt>
      <trkpt lat="43.39348" lon="6.67613">
        <ele>21.70455</ele>
        <time>2011-08-11T11:40:28Z</time>
      </trkpt>
      <trkpt lat="43.39394" lon="6.67586">
        <ele>19.580656</ele>
        <time>2011-08-11T11:40:44Z</time>
      </trkpt>
      <trkpt lat="43.39437" lon="6.67583">
        <ele>20.278578</ele>
        <time>2011-08-11T11:41:04Z</time>
      </trkpt>
      <trkpt lat="43.39482" lon="6.67564">
        <ele>19.854637</ele>
        <time>2011-08-11T11:41:20Z</time>
      </trkpt>
      <trkpt lat="43.39521" lon="6.67539">
        <ele>18.930264</ele>
        <time>2011-08-11T11:42:16Z</time>
      </trkpt>
      <trkpt lat="43.39565" lon="6.67509">
        <ele>18.442562</ele>
        <time>2011-08-11T11:42:29Z</time>
      </trkpt>
      <trkpt lat="43.39611" lon="6.67493">
        <ele>18</ele>
        <time>2011-08-11T11:42:43Z</time>
      </trkpt>
      <trkpt lat="43.39657" lon="6.67479">
        <ele>18</ele>
        <time>2011-08-11T11:42:56Z</time>
      </trkpt>
      <trkpt lat="43.39694" lon="6.67438">
        <ele>18</ele>
        <time>2011-08-11T11:43:50Z</time>
      </trkpt>
      <trkpt lat="43.39736" lon="6.6742">
        <ele>17.972157</ele>
        <time>2011-08-11T11:44:02Z</time>
      </trkpt>
      <trkpt lat="43.39744" lon="6.67356">
        <ele>17.752991</ele>
        <time>2011-08-11T11:44:14Z</time>
      </trkpt>
      <trkpt lat="43.39739" lon="6.67291">
        <ele>17.171925</ele>
        <time>2011-08-11T11:44:29Z</time>
      </trkpt>
      <trkpt lat="43.39712" lon="6.67245">
        <ele>17.109394</ele>
        <time>2011-08-11T11:44:48Z</time>
      </trkpt>
      <trkpt lat="43.39671" lon="6.67203">
        <ele>16.165001</ele>
        <time>2011-08-11T11:45:43Z</time>
      </trkpt>
      <trkpt lat="43.39629" lon="6.67207">
        <ele>16.413288</ele>
        <time>2011-08-11T11:45:56Z</time>
      </trkpt>
      <trkpt lat="43.39584" lon="6.67231">
        <ele>18.477093</ele>
        <time>2011-08-11T11:46:44Z</time>
      </trkpt>
      <trkpt lat="43.39549" lon="6.67189">
        <ele>19.004757</ele>
        <time>2011-08-11T11:46:59Z</time>
      </trkpt>
      <trkpt lat="43.39517" lon="6.67145">
        <ele>18.458168</ele>
        <time>2011-08-11T11:47:15Z</time>
      </trkpt>
      <trkpt lat="43.39485" lon="6.67101">
        <ele>16.102987</ele>
        <time>2011-08-11T11:47:32Z</time>
      </trkpt>
      <trkpt lat="43.39447" lon="6.67072">
        <ele>16.136362</ele>
        <time>2011-08-11T11:47:55Z</time>
      </trkpt>
      <trkpt lat="43.39415" lon="6.67019">
        <ele>15.8427</ele>
        <time>2011-08-11T11:50:56Z</time>
      </trkpt>
      <trkpt lat="43.39394" lon="6.66977">
        <ele>16.244862</ele>
        <time>2011-08-11T12:10:03Z</time>
      </trkpt>
      <trkpt lat="43.39358" lon="6.66939">
        <ele>17.528749</ele>
        <time>2011-08-11T12:10:24Z</time>
      </trkpt>
      <trkpt lat="43.39315" lon="6.66907">
        <ele>17.35675</ele>
        <time>2011-08-11T12:10:42Z</time>
      </trkpt>
      <trkpt lat="43.39278" lon="6.66863">
        <ele>16.365225</ele>
        <time>2011-08-11T12:11:12Z</time>
      </trkpt>
      <trkpt lat="43.39274" lon="6.66801">
        <ele>16.2017</ele>
        <time>2011-08-11T12:11:28Z</time>
      </trkpt>
      <trkpt lat="43.39298" lon="6.66744">
        <ele>21.740534</ele>
        <time>2011-08-11T12:11:52Z</time>
      </trkpt>
      <trkpt lat="43.39315" lon="6.66687">
        <ele>26.844999</ele>
        <time>2011-08-11T12:12:25Z</time>
      </trkpt>
      <trkpt lat="43.39323" lon="6.6663">
        <ele>28.556801</ele>
        <time>2011-08-11T12:13:00Z</time>
      </trkpt>
      <trkpt lat="43.39341" lon="6.6657">
        <ele>32.117725</ele>
        <time>2011-08-11T12:13:23Z</time>
      </trkpt>
      <trkpt lat="43.3935" lon="6.66512">
        <ele>33.201126</ele>
        <time>2011-08-11T12:13:55Z</time>
      </trkpt>
      <trkpt lat="43.39395" lon="6.66487">
        <ele>36.31345</ele>
        <time>2011-08-11T12:14:25Z</time>
      </trkpt>
      <trkpt lat="43.39439" lon="6.66469">
        <ele>42.1749</ele>
        <time>2011-08-11T12:14:56Z</time>
      </trkpt>
      <trkpt lat="43.39484" lon="6.66451">
        <ele>45.112064</ele>
        <time>2011-08-11T12:15:29Z</time>
      </trkpt>
      <trkpt lat="43.39526" lon="6.66439">
        <ele>48.130676</ele>
        <time>2011-08-11T12:16:14Z</time>
      </trkpt>
      <trkpt lat="43.39571" lon="6.66436">
        <ele>51.950001</ele>
        <time>2011-08-11T12:16:43Z</time>
      </trkpt>
      <trkpt lat="43.39618" lon="6.6644">
        <ele>54.586636</ele>
        <time>2011-08-11T12:17:08Z</time>
      </trkpt>
      <trkpt lat="43.3966" lon="6.66421">
        <ele>56.688801</ele>
        <time>2011-08-11T12:17:40Z</time>
      </trkpt>
      <trkpt lat="43.39693" lon="6.66449">
        <ele>60.4081</ele>
        <time>2011-08-11T12:18:10Z</time>
      </trkpt>
      <trkpt lat="43.39685" lon="6.66432">
        <ele>60.072376</ele>
        <time>2011-08-11T12:18:42Z</time>
      </trkpt>
      <trkpt lat="43.39698" lon="6.66416">
        <ele>61.255936</ele>
        <time>2011-08-11T12:19:23Z</time>
      </trkpt>
      <trkpt lat="43.39732" lon="6.66393">
        <ele>65.197861</ele>
        <time>2011-08-11T12:19:54Z</time>
      </trkpt>
      <trkpt lat="43.39773" lon="6.66409">
        <ele>66.830368</ele>
        <time>2011-08-11T12:20:28Z</time>
      </trkpt>
      <trkpt lat="43.39799" lon="6.66356">
        <ele>70.862534</ele>
        <time>2011-08-11T12:21:26Z</time>
      </trkpt>
      <trkpt lat="43.39784" lon="6.663">
        <ele>76.997498</ele>
        <time>2011-08-11T12:21:52Z</time>
      </trkpt>
      <trkpt lat="43.39775" lon="6.66265">
        <ele>80.417503</ele>
        <time>2011-08-11T12:22:27Z</time>
      </trkpt>
      <trkpt lat="43.39773" lon="6.66227">
        <ele>84.618607</ele>
        <time>2011-08-11T12:23:06Z</time>
      </trkpt>
      <trkpt lat="43.39796" lon="6.66209">
        <ele>89.647652</ele>
        <time>2011-08-11T12:23:39Z</time>
      </trkpt>
      <trkpt lat="43.39826" lon="6.66165">
        <ele>96.014984</ele>
        <time>2011-08-11T12:24:41Z</time>
      </trkpt>
      <trkpt lat="43.3986" lon="6.66121">
        <ele>101.275002</ele>
        <time>2011-08-11T12:25:16Z</time>
      </trkpt>
      <trkpt lat="43.39889" lon="6.66073">
        <ele>106.62674</ele>
        <time>2011-08-11T12:26:16Z</time>
      </trkpt>
      <trkpt lat="43.39904" lon="6.66014">
        <ele>113.622498</ele>
        <time>2011-08-11T12:29:15Z</time>
      </trkpt>
      <trkpt lat="43.39914" lon="6.65952">
        <ele>116.349602</ele>
        <time>2011-08-11T12:29:51Z</time>
      </trkpt>
      <trkpt lat="43.3991" lon="6.65891">
        <ele>120.2071</ele>
        <time>2011-08-11T12:30:31Z</time>
      </trkpt>
      <trkpt lat="43.39918" lon="6.65831">
        <ele>124.707497</ele>
        <time>2011-08-11T12:32:13Z</time>
      </trkpt>
      <trkpt lat="43.3996" lon="6.65801">
        <ele>127.68882</ele>
        <time>2011-08-11T12:32:50Z</time>
      </trkpt>
      <trkpt lat="43.40003" lon="6.65778">
        <ele>128.094833</ele>
        <time>2011-08-11T12:33:44Z</time>
      </trkpt>
      <trkpt lat="43.40022" lon="6.65726">
        <ele>132.891052</ele>
        <time>2011-08-11T12:36:26Z</time>
      </trkpt>
      <trkpt lat="43.40033" lon="6.65661">
        <ele>139.186752</ele>
        <time>2011-08-11T12:37:05Z</time>
      </trkpt>
      <trkpt lat="43.40024" lon="6.65599">
        <ele>142.857681</ele>
        <time>2011-08-11T12:37:44Z</time>
      </trkpt>
      <trkpt lat="43.40006" lon="6.65541">
        <ele>144.686249</ele>
        <time>2011-08-11T12:38:57Z</time>
      </trkpt>
      <trkpt lat="43.39973" lon="6.65495">
        <ele>151.647659</ele>
        <time>2011-08-11T12:39:32Z</time>
      </trkpt>
      <trkpt lat="43.39928" lon="6.65476">
        <ele>154.749374</ele>
        <time>2011-08-11T12:40:09Z</time>
      </trkpt>
      <trkpt lat="43.39893" lon="6.65437">
        <ele>157.730591</ele>
        <time>2011-08-11T12:40:48Z</time>
      </trkpt>
      <trkpt lat="43.39882" lon="6.65377">
        <ele>165.040009</ele>
        <time>2011-08-11T12:41:22Z</time>
      </trkpt>
      <trkpt lat="43.39852" lon="6.65342">
        <ele>165.72464</ele>
        <time>2011-08-11T12:41:55Z</time>
      </trkpt>
      <trkpt lat="43.39819" lon="6.65301">
        <ele>172.487549</ele>
        <time>2011-08-11T12:42:28Z</time>
      </trkpt>
      <trkpt lat="43.39783" lon="6.65319">
        <ele>171.171936</ele>
        <time>2011-08-11T12:43:01Z</time>
      </trkpt>
      <trkpt lat="43.39739" lon="6.65344">
        <ele>176.11499</ele>
        <time>2011-08-11T12:43:34Z</time>
      </trkpt>
      <trkpt lat="43.39709" lon="6.65385">
        <ele>176.277863</ele>
        <time>2011-08-11T12:44:03Z</time>
      </trkpt>
      <trkpt lat="43.39667" lon="6.6541">
        <ele>175.791855</ele>
        <time>2011-08-11T12:44:32Z</time>
      </trkpt>
      <trkpt lat="43.39629" lon="6.65377">
        <ele>180.746246</ele>
        <time>2011-08-11T12:44:59Z</time>
      </trkpt>
      <trkpt lat="43.39594" lon="6.65337">
        <ele>182.245621</ele>
        <time>2011-08-11T12:45:16Z</time>
      </trkpt>
      <trkpt lat="43.39552" lon="6.65303">
        <ele>182.085007</ele>
        <time>2011-08-11T12:45:34Z</time>
      </trkpt>
      <trkpt lat="43.39512" lon="6.65277">
        <ele>184.680725</ele>
        <time>2011-08-11T12:46:02Z</time>
      </trkpt>
      <trkpt lat="43.39473" lon="6.65249">
        <ele>188.096268</ele>
        <time>2011-08-11T12:46:31Z</time>
      </trkpt>
      <trkpt lat="43.39433" lon="6.6522">
        <ele>189.18425</ele>
        <time>2011-08-11T12:46:56Z</time>
      </trkpt>
      <trkpt lat="43.39404" lon="6.65172">
        <ele>191.965408</ele>
        <time>2011-08-11T12:47:20Z</time>
      </trkpt>
      <trkpt lat="43.39418" lon="6.65111">
        <ele>195.720505</ele>
        <time>2011-08-11T12:47:47Z</time>
      </trkpt>
      <trkpt lat="43.39442" lon="6.65059">
        <ele>195.445435</ele>
        <time>2011-08-11T12:49:54Z</time>
      </trkpt>
      <trkpt lat="43.39483" lon="6.65029">
        <ele>200.708282</ele>
        <time>2011-08-11T12:50:13Z</time>
      </trkpt>
      <trkpt lat="43.39499" lon="6.64972">
        <ele>197.627884</ele>
        <time>2011-08-11T12:50:30Z</time>
      </trkpt>
      <trkpt lat="43.39511" lon="6.64901">
        <ele>192.181564</ele>
        <time>2011-08-11T12:50:39Z</time>
      </trkpt>
      <trkpt lat="43.39547" lon="6.64853">
        <ele>193.288437</ele>
        <time>2011-08-11T12:50:47Z</time>
      </trkpt>
      <trkpt lat="43.39591" lon="6.64829">
        <ele>196.207626</ele>
        <time>2011-08-11T12:51:00Z</time>
      </trkpt>
      <trkpt lat="43.39627" lon="6.64798">
        <ele>197.672501</ele>
        <time>2011-08-11T12:51:22Z</time>
      </trkpt>
      <trkpt lat="43.39627" lon="6.64737">
        <ele>194.908478</ele>
        <time>2011-08-11T12:51:32Z</time>
      </trkpt>
      <trkpt lat="43.39583" lon="6.64735">
        <ele>191.694351</ele>
        <time>2011-08-11T12:51:40Z</time>
      </trkpt>
      <trkpt lat="43.39538" lon="6.64743">
        <ele>184.90889</ele>
        <time>2011-08-11T12:51:48Z</time>
      </trkpt>
      <trkpt lat="43.39492" lon="6.64738">
        <ele>183.891281</ele>
        <time>2011-08-11T12:52:01Z</time>
      </trkpt>
      <trkpt lat="43.39443" lon="6.64738">
        <ele>182.125656</ele>
        <time>2011-08-11T12:52:13Z</time>
      </trkpt>
      <trkpt lat="43.39401" lon="6.64717">
        <ele>184.692444</ele>
        <time>2011-08-11T12:52:30Z</time>
      </trkpt>
      <trkpt lat="43.3936" lon="6.64684">
        <ele>187.122421</ele>
        <time>2011-08-11T12:53:01Z</time>
      </trkpt>
      <trkpt lat="43.39338" lon="6.64636">
        <ele>191.424698</ele>
        <time>2011-08-11T12:53:53Z</time>
      </trkpt>
      <trkpt lat="43.39381" lon="6.64606">
        <ele>192.442581</ele>
        <time>2011-08-11T12:54:07Z</time>
      </trkpt>
      <trkpt lat="43.39427" lon="6.64587">
        <ele>192.278793</ele>
        <time>2011-08-11T12:54:16Z</time>
      </trkpt>
      <trkpt lat="43.39467" lon="6.64548">
        <ele>191.692383</ele>
        <time>2011-08-11T12:54:26Z</time>
      </trkpt>
      <trkpt lat="43.39495" lon="6.645">
        <ele>192.670334</ele>
        <time>2011-08-11T12:54:39Z</time>
      </trkpt>
      <trkpt lat="43.39516" lon="6.64444">
        <ele>189.324341</ele>
        <time>2011-08-11T12:54:52Z</time>
      </trkpt>
      <trkpt lat="43.39556" lon="6.64407">
        <ele>189.785965</ele>
        <time>2011-08-11T12:55:06Z</time>
      </trkpt>
      <trkpt lat="43.396" lon="6.64384">
        <ele>191.091599</ele>
        <time>2011-08-11T12:55:16Z</time>
      </trkpt>
      <trkpt lat="43.39642" lon="6.64365">
        <ele>192.334518</ele>
        <time>2011-08-11T12:55:29Z</time>
      </trkpt>
      <trkpt lat="43.39689" lon="6.64336">
        <ele>188.949997</ele>
        <time>2011-08-11T12:55:39Z</time>
      </trkpt>
      <trkpt lat="43.39733" lon="6.64324">
        <ele>187.820007</ele>
        <time>2011-08-11T12:55:47Z</time>
      </trkpt>
      <trkpt lat="43.3978" lon="6.6431">
        <ele>185.092651</ele>
        <time>2011-08-11T12:55:55Z</time>
      </trkpt>
      <trkpt lat="43.39833" lon="6.64313">
        <ele>187.643219</ele>
        <time>2011-08-11T12:56:03Z</time>
      </trkpt>
      <trkpt lat="43.39861" lon="6.64263">
        <ele>181.308838</ele>
        <time>2011-08-11T12:56:11Z</time>
      </trkpt>
      <trkpt lat="43.39893" lon="6.64221">
        <ele>181.094696</ele>
        <time>2011-08-11T12:56:22Z</time>
      </trkpt>
      <trkpt lat="43.39939" lon="6.64214">
        <ele>186.942627</ele>
        <time>2011-08-11T12:56:51Z</time>
      </trkpt>
      <trkpt lat="43.39988" lon="6.6421">
        <ele>190.544617</ele>
        <time>2011-08-11T13:00:49Z</time>
      </trkpt>
      <trkpt lat="43.4003" lon="6.64195">
        <ele>190.347504</ele>
        <time>2011-08-11T13:01:22Z</time>
      </trkpt>
      <trkpt lat="43.4002" lon="6.64157">
        <ele>189.134155</ele>
        <time>2011-08-11T13:02:45Z</time>
      </trkpt>
      <trkpt lat="43.39972" lon="6.6413">
        <ele>185.352432</ele>
        <time>2011-08-11T13:03:24Z</time>
      </trkpt>
      <trkpt lat="43.3993" lon="6.64091">
        <ele>182.714996</ele>
        <time>2011-08-11T13:03:32Z</time>
      </trkpt>
      <trkpt lat="43.39891" lon="6.64057">
        <ele>182.265533</ele>
        <time>2011-08-11T13:03:41Z</time>
      </trkpt>
      <trkpt lat="43.39855" lon="6.6407">
        <ele>179.610184</ele>
        <time>2011-08-11T13:03:53Z</time>
      </trkpt>
      <trkpt lat="43.39812" lon="6.64078">
        <ele>178.901749</ele>
        <time>2011-08-11T13:04:14Z</time>
      </trkpt>
      <trkpt lat="43.39767" lon="6.64058">
        <ele>184.326248</ele>
        <time>2011-08-11T13:04:32Z</time>
      </trkpt>
      <trkpt lat="43.39726" lon="6.64058">
        <ele>183.18306</ele>
        <time>2011-08-11T13:05:07Z</time>
      </trkpt>
      <trkpt lat="43.3968" lon="6.64042">
        <ele>184.349869</ele>
        <time>2011-08-11T13:05:20Z</time>
      </trkpt>
      <trkpt lat="43.39637" lon="6.6402">
        <ele>186.000092</ele>
        <time>2011-08-11T13:05:41Z</time>
      </trkpt>
      <trkpt lat="43.39602" lon="6.63978">
        <ele>186.499344</ele>
        <time>2011-08-11T13:06:14Z</time>
      </trkpt>
      <trkpt lat="43.39579" lon="6.63929">
        <ele>190.275497</ele>
        <time>2011-08-11T13:06:31Z</time>
      </trkpt>
      <trkpt lat="43.39537" lon="6.63949">
        <ele>186.92511</ele>
        <time>2011-08-11T13:06:46Z</time>
      </trkpt>
      <trkpt lat="43.3949" lon="6.63963">
        <ele>185.08165</ele>
        <time>2011-08-11T13:07:05Z</time>
      </trkpt>
      <trkpt lat="43.39448" lon="6.63947">
        <ele>188.896057</ele>
        <time>2011-08-11T13:07:26Z</time>
      </trkpt>
      <trkpt lat="43.39402" lon="6.63941">
        <ele>191.194992</ele>
        <time>2011-08-11T13:07:40Z</time>
      </trkpt>
      <trkpt lat="43.39355" lon="6.63942">
        <ele>194.953293</ele>
        <time>2011-08-11T13:11:28Z</time>
      </trkpt>
      <trkpt lat="43.3931" lon="6.63956">
        <ele>202.91748</ele>
        <time>2011-08-11T13:12:21Z</time>
      </trkpt>
      <trkpt lat="43.39281" lon="6.63994">
        <ele>204.598755</ele>
        <time>2011-08-11T13:12:59Z</time>
      </trkpt>
      <trkpt lat="43.39241" lon="6.63999">
        <ele>207.890198</ele>
        <time>2011-08-11T13:14:10Z</time>
      </trkpt>
      <trkpt lat="43.39199" lon="6.63969">
        <ele>210.887802</ele>
        <time>2011-08-11T13:14:43Z</time>
      </trkpt>
      <trkpt lat="43.39215" lon="6.63915">
        <ele>212.384995</ele>
        <time>2011-08-11T13:15:33Z</time>
      </trkpt>
      <trkpt lat="43.39213" lon="6.63916">
        <ele>212.317963</ele>
        <time>2011-08-11T13:16:33Z</time>
      </trkpt>
      <trkpt lat="43.39223" lon="6.63856">
        <ele>211.989182</ele>
        <time>2011-08-11T13:16:47Z</time>
      </trkpt>
      <trkpt lat="43.39204" lon="6.63795">
        <ele>203.561646</ele>
        <time>2011-08-11T13:16:59Z</time>
      </trkpt>
      <trkpt lat="43.39179" lon="6.63738">
        <ele>195.641525</ele>
        <time>2011-08-11T13:17:11Z</time>
      </trkpt>
      <trkpt lat="43.39158" lon="6.63682">
        <ele>191.906372</ele>
        <time>2011-08-11T13:17:26Z</time>
      </trkpt>
      <trkpt lat="43.39145" lon="6.63713">
        <ele>186.865448</ele>
        <time>2011-08-11T13:17:49Z</time>
      </trkpt>
      <trkpt lat="43.39148" lon="6.63729">
        <ele>186.855057</ele>
        <time>2011-08-11T13:19:21Z</time>
      </trkpt>
      <trkpt lat="43.39157" lon="6.63676">
        <ele>191.350876</ele>
        <time>2011-08-11T13:20:05Z</time>
      </trkpt>
      <trkpt lat="43.39177" lon="6.63729">
        <ele>195.121597</ele>
        <time>2011-08-11T13:21:16Z</time>
      </trkpt>
      <trkpt lat="43.39201" lon="6.63781">
        <ele>202.865906</ele>
        <time>2011-08-11T13:22:17Z</time>
      </trkpt>
      <trkpt lat="43.3922" lon="6.63838">
        <ele>210.317322</ele>
        <time>2011-08-11T13:23:14Z</time>
      </trkpt>
      <trkpt lat="43.39225" lon="6.63897">
        <ele>212.984818</ele>
        <time>2011-08-11T13:23:58Z</time>
      </trkpt>
      <trkpt lat="43.39238" lon="6.6391">
        <ele>214.244034</ele>
        <time>2011-08-11T13:24:45Z</time>
      </trkpt>
      <trkpt lat="43.39257" lon="6.63877">
        <ele>219.790466</ele>
        <time>2011-08-11T13:25:57Z</time>
      </trkpt>
      <trkpt lat="43.39253" lon="6.63827">
        <ele>222.503891</ele>
        <time>2011-08-11T13:52:49Z</time>
      </trkpt>
      <trkpt lat="43.39239" lon="6.63762">
        <ele>219.307327</ele>
        <time>2011-08-11T13:53:44Z</time>
      </trkpt>
      <trkpt lat="43.39244" lon="6.63697">
        <ele>219.751007</ele>
        <time>2011-08-11T13:53:58Z</time>
      </trkpt>
      <trkpt lat="43.39266" lon="6.63635">
        <ele>222.196243</ele>
        <time>2011-08-11T13:54:09Z</time>
      </trkpt>
      <trkpt lat="43.39273" lon="6.6357">
        <ele>221.784561</ele>
        <time>2011-08-11T13:54:20Z</time>
      </trkpt>
      <trkpt lat="43.39296" lon="6.63519">
        <ele>230.227509</ele>
        <time>2011-08-11T13:55:23Z</time>
      </trkpt>
      <trkpt lat="43.39296" lon="6.63461">
        <ele>234.220016</ele>
        <time>2011-08-11T13:56:29Z</time>
      </trkpt>
      <trkpt lat="43.39273" lon="6.63408">
        <ele>233.210007</ele>
        <time>2011-08-11T13:57:10Z</time>
      </trkpt>
      <trkpt lat="43.39282" lon="6.63353">
        <ele>234.189911</ele>
        <time>2011-08-11T13:57:53Z</time>
      </trkpt>
      <trkpt lat="43.39324" lon="6.63329">
        <ele>234.901093</ele>
        <time>2011-08-11T13:58:06Z</time>
      </trkpt>
      <trkpt lat="43.39371" lon="6.63321">
        <ele>238.464645</ele>
        <time>2011-08-11T13:58:21Z</time>
      </trkpt>
      <trkpt lat="43.39414" lon="6.633">
        <ele>240.033356</ele>
        <time>2011-08-11T13:58:45Z</time>
      </trkpt>
      <trkpt lat="43.39456" lon="6.6328">
        <ele>242.962402</ele>
        <time>2011-08-11T13:59:04Z</time>
      </trkpt>
      <trkpt lat="43.39484" lon="6.63234">
        <ele>242.476852</ele>
        <time>2011-08-11T13:59:30Z</time>
      </trkpt>
      <trkpt lat="43.39522" lon="6.63209">
        <ele>249.788239</ele>
        <time>2011-08-11T14:00:29Z</time>
      </trkpt>
      <trkpt lat="43.3955" lon="6.63163">
        <ele>251.729263</ele>
        <time>2011-08-11T14:01:19Z</time>
      </trkpt>
      <trkpt lat="43.3958" lon="6.63118">
        <ele>253.941895</ele>
        <time>2011-08-11T14:02:03Z</time>
      </trkpt>
      <trkpt lat="43.39616" lon="6.6308">
        <ele>258.283386</ele>
        <time>2011-08-11T14:02:16Z</time>
      </trkpt>
      <trkpt lat="43.39636" lon="6.63038">
        <ele>258.499756</ele>
        <time>2011-08-11T14:02:33Z</time>
      </trkpt>
      <trkpt lat="43.396" lon="6.63001">
        <ele>256.187408</ele>
        <time>2011-08-11T14:03:00Z</time>
      </trkpt>
      <trkpt lat="43.39567" lon="6.62958">
        <ele>254.511459</ele>
        <time>2011-08-11T14:03:22Z</time>
      </trkpt>
      <trkpt lat="43.39528" lon="6.62911">
        <ele>252.375</ele>
        <time>2011-08-11T14:03:32Z</time>
      </trkpt>
      <trkpt lat="43.39527" lon="6.62857">
        <ele>251.28125</ele>
        <time>2011-08-11T14:03:50Z</time>
      </trkpt>
      <trkpt lat="43.3957" lon="6.62828">
        <ele>257.309998</ele>
        <time>2011-08-11T14:04:03Z</time>
      </trkpt>
      <trkpt lat="43.39598" lon="6.62774">
        <ele>255.656006</ele>
        <time>2011-08-11T14:04:17Z</time>
      </trkpt>
      <trkpt lat="43.39623" lon="6.62718">
        <ele>250.143326</ele>
        <time>2011-08-11T14:04:30Z</time>
      </trkpt>
      <trkpt lat="43.39657" lon="6.62681">
        <ele>253.75238</ele>
        <time>2011-08-11T14:04:46Z</time>
      </trkpt>
      <trkpt lat="43.39685" lon="6.6263">
        <ele>252.544098</ele>
        <time>2011-08-11T14:05:11Z</time>
      </trkpt>
      <trkpt lat="43.39723" lon="6.62596">
        <ele>255.465027</ele>
        <time>2011-08-11T14:05:36Z</time>
      </trkpt>
      <trkpt lat="43.3976" lon="6.62565">
        <ele>256.669128</ele>
        <time>2011-08-11T14:05:56Z</time>
      </trkpt>
      <trkpt lat="43.39802" lon="6.62549">
        <ele>256.672638</ele>
        <time>2011-08-11T14:06:19Z</time>
      </trkpt>
      <trkpt lat="43.39843" lon="6.6257">
        <ele>266.867249</ele>
        <time>2011-08-11T14:06:49Z</time>
      </trkpt>
      <trkpt lat="43.39871" lon="6.62527">
        <ele>268.65274</ele>
        <time>2011-08-11T14:08:08Z</time>
      </trkpt>
      <trkpt lat="43.39907" lon="6.62492">
        <ele>273.976013</ele>
        <time>2011-08-11T14:08:49Z</time>
      </trkpt>
      <trkpt lat="43.39943" lon="6.6245">
        <ele>275.481201</ele>
        <time>2011-08-11T14:09:45Z</time>
      </trkpt>
      <trkpt lat="43.39968" lon="6.62423">
        <ele>277.289337</ele>
        <time>2011-08-11T14:11:11Z</time>
      </trkpt>
      <trkpt lat="43.40012" lon="6.62383">
        <ele>283.153748</ele>
        <time>2011-08-11T14:11:44Z</time>
      </trkpt>
      <trkpt lat="43.40047" lon="6.62338">
        <ele>283.095001</ele>
        <time>2011-08-11T14:12:09Z</time>
      </trkpt>
      <trkpt lat="43.40083" lon="6.62297">
        <ele>292.625336</ele>
        <time>2011-08-11T14:12:34Z</time>
      </trkpt>
      <trkpt lat="43.40053" lon="6.62268">
        <ele>287.490601</ele>
        <time>2011-08-11T14:12:59Z</time>
      </trkpt>
      <trkpt lat="43.40022" lon="6.62256">
        <ele>289.504486</ele>
        <time>2011-08-11T14:13:21Z</time>
      </trkpt>
      <trkpt lat="43.3998" lon="6.62257">
        <ele>291.19751</ele>
        <time>2011-08-11T14:14:15Z</time>
      </trkpt>
      <trkpt lat="43.39937" lon="6.62238">
        <ele>297.317627</ele>
        <time>2011-08-11T14:14:43Z</time>
      </trkpt>
      <trkpt lat="43.39892" lon="6.62208">
        <ele>303.233765</ele>
        <time>2011-08-11T14:15:59Z</time>
      </trkpt>
      <trkpt lat="43.39845" lon="6.62196">
        <ele>304.411255</ele>
        <time>2011-08-11T14:17:07Z</time>
      </trkpt>
      <trkpt lat="43.39801" lon="6.6217">
        <ele>311.015747</ele>
        <time>2011-08-11T14:17:59Z</time>
      </trkpt>
      <trkpt lat="43.39762" lon="6.62131">
        <ele>320.710876</ele>
        <time>2011-08-11T14:19:02Z</time>
      </trkpt>
      <trkpt lat="43.39728" lon="6.62091">
        <ele>323.853912</ele>
        <time>2011-08-11T14:20:15Z</time>
      </trkpt>
      <trkpt lat="43.39715" lon="6.62104">
        <ele>320.845001</ele>
        <time>2011-08-11T14:21:22Z</time>
      </trkpt>
      <trkpt lat="43.39674" lon="6.62137">
        <ele>313.774963</ele>
        <time>2011-08-11T14:21:38Z</time>
      </trkpt>
      <trkpt lat="43.39631" lon="6.62158">
        <ele>307.900696</ele>
        <time>2011-08-11T14:21:55Z</time>
      </trkpt>
      <trkpt lat="43.39596" lon="6.62133">
        <ele>301.620026</ele>
        <time>2011-08-11T14:22:33Z</time>
      </trkpt>
      <trkpt lat="43.3962" lon="6.62086">
        <ele>300.92749</ele>
        <time>2011-08-11T14:23:09Z</time>
      </trkpt>
      <trkpt lat="43.39647" lon="6.62035">
        <ele>301.42865</ele>
        <time>2011-08-11T14:23:23Z</time>
      </trkpt>
      <trkpt lat="43.39627" lon="6.61969">
        <ele>296.997223</ele>
        <time>2011-08-11T14:23:37Z</time>
      </trkpt>
      <trkpt lat="43.39614" lon="6.61906">
        <ele>296.641388</ele>
        <time>2011-08-11T14:23:48Z</time>
      </trkpt>
      <trkpt lat="43.39602" lon="6.61838">
        <ele>293.556549</ele>
        <time>2011-08-11T14:23:58Z</time>
      </trkpt>
      <trkpt lat="43.39601" lon="6.61778">
        <ele>288.144989</ele>
        <time>2011-08-11T14:24:11Z</time>
      </trkpt>
      <trkpt lat="43.39582" lon="6.61838">
        <ele>285.117981</ele>
        <time>2011-08-11T14:24:26Z</time>
      </trkpt>
      <trkpt lat="43.39571" lon="6.61903">
        <ele>281.800934</ele>
        <time>2011-08-11T14:24:37Z</time>
      </trkpt>
      <trkpt lat="43.39551" lon="6.61927">
        <ele>275.129608</ele>
        <time>2011-08-11T14:25:27Z</time>
      </trkpt>
      <trkpt lat="43.39543" lon="6.61867">
        <ele>271.380249</ele>
        <time>2011-08-11T14:25:54Z</time>
      </trkpt>
      <trkpt lat="43.39529" lon="6.61858">
        <ele>265.646912</ele>
        <time>2011-08-11T14:26:14Z</time>
      </trkpt>
      <trkpt lat="43.39514" lon="6.61916">
        <ele>262.383209</ele>
        <time>2011-08-11T14:26:31Z</time>
      </trkpt>
      <trkpt lat="43.39487" lon="6.61965">
        <ele>254.949997</ele>
        <time>2011-08-11T14:26:49Z</time>
      </trkpt>
      <trkpt lat="43.39471" lon="6.62022">
        <ele>251.409241</ele>
        <time>2011-08-11T14:27:05Z</time>
      </trkpt>
      <trkpt lat="43.39449" lon="6.62077">
        <ele>247.196869</ele>
        <time>2011-08-11T14:27:19Z</time>
      </trkpt>
      <trkpt lat="43.39419" lon="6.6213">
        <ele>240.159454</ele>
        <time>2011-08-11T14:27:33Z</time>
      </trkpt>
      <trkpt lat="43.39405" lon="6.62195">
        <ele>239.199997</ele>
        <time>2011-08-11T14:27:43Z</time>
      </trkpt>
      <trkpt lat="43.39387" lon="6.62257">
        <ele>234.257813</ele>
        <time>2011-08-11T14:27:51Z</time>
      </trkpt>
      <trkpt lat="43.39371" lon="6.62313">
        <ele>228.605881</ele>
        <time>2011-08-11T14:28:00Z</time>
      </trkpt>
      <trkpt lat="43.39375" lon="6.62375">
        <ele>224.196777</ele>
        <time>2011-08-11T14:28:14Z</time>
      </trkpt>
      <trkpt lat="43.39371" lon="6.62437">
        <ele>214.888443</ele>
        <time>2011-08-11T14:28:29Z</time>
      </trkpt>
      <trkpt lat="43.39376" lon="6.62498">
        <ele>208.943253</ele>
        <time>2011-08-11T14:28:47Z</time>
      </trkpt>
      <trkpt lat="43.39357" lon="6.6255">
        <ele>196.509995</ele>
        <time>2011-08-11T14:29:28Z</time>
      </trkpt>
      <trkpt lat="43.39311" lon="6.62557">
        <ele>187.301285</ele>
        <time>2011-08-11T14:29:41Z</time>
      </trkpt>
      <trkpt lat="43.39269" lon="6.62582">
        <ele>184.818344</ele>
        <time>2011-08-11T14:29:55Z</time>
      </trkpt>
      <trkpt lat="43.39229" lon="6.62614">
        <ele>182.146271</ele>
        <time>2011-08-11T14:30:04Z</time>
      </trkpt>
      <trkpt lat="43.39195" lon="6.62654">
        <ele>179.542786</ele>
        <time>2011-08-11T14:30:12Z</time>
      </trkpt>
      <trkpt lat="43.39167" lon="6.62701">
        <ele>179.305756</ele>
        <time>2011-08-11T14:30:22Z</time>
      </trkpt>
      <trkpt lat="43.39137" lon="6.62755">
        <ele>169.605774</ele>
        <time>2011-08-11T14:30:32Z</time>
      </trkpt>
      <trkpt lat="43.3911" lon="6.62804">
        <ele>166.262375</ele>
        <time>2011-08-11T14:30:42Z</time>
      </trkpt>
      <trkpt lat="43.39101" lon="6.62865">
        <ele>161.738434</ele>
        <time>2011-08-11T14:30:59Z</time>
      </trkpt>
      <trkpt lat="43.39068" lon="6.62918">
        <ele>161.479782</ele>
        <time>2011-08-11T14:31:12Z</time>
      </trkpt>
      <trkpt lat="43.39044" lon="6.62971">
        <ele>152.477768</ele>
        <time>2011-08-11T14:31:56Z</time>
      </trkpt>
      <trkpt lat="43.39012" lon="6.63008">
        <ele>147.20311</ele>
        <time>2011-08-11T14:32:27Z</time>
      </trkpt>
      <trkpt lat="43.38973" lon="6.63039">
        <ele>137.908691</ele>
        <time>2011-08-11T14:32:50Z</time>
      </trkpt>
      <trkpt lat="43.3893" lon="6.63049">
        <ele>128.846664</ele>
        <time>2011-08-11T14:34:07Z</time>
      </trkpt>
      <trkpt lat="43.38889" lon="6.63079">
        <ele>117.127502</ele>
        <time>2011-08-11T14:35:18Z</time>
      </trkpt>
      <trkpt lat="43.38857" lon="6.6312">
        <ele>117.925003</ele>
        <time>2011-08-11T14:37:36Z</time>
      </trkpt>
      <trkpt lat="43.38823" lon="6.63166">
        <ele>123.862213</ele>
        <time>2011-08-11T14:38:38Z</time>
      </trkpt>
      <trkpt lat="43.38792" lon="6.63214">
        <ele>127.077194</ele>
        <time>2011-08-11T14:39:46Z</time>
      </trkpt>
      <trkpt lat="43.38798" lon="6.63271">
        <ele>125.145424</ele>
        <time>2011-08-11T14:40:01Z</time>
      </trkpt>
      <trkpt lat="43.38841" lon="6.63311">
        <ele>130.552505</ele>
        <time>2011-08-11T14:40:13Z</time>
      </trkpt>
      <trkpt lat="43.38849" lon="6.63339">
        <ele>128.70697</ele>
        <time>2011-08-11T14:40:32Z</time>
      </trkpt>
      <trkpt lat="43.38797" lon="6.63334">
        <ele>125.574623</ele>
        <time>2011-08-11T14:40:44Z</time>
      </trkpt>
      <trkpt lat="43.38751" lon="6.6333">
        <ele>122.375114</ele>
        <time>2011-08-11T14:41:03Z</time>
      </trkpt>
      <trkpt lat="43.38704" lon="6.63351">
        <ele>120.525002</ele>
        <time>2011-08-11T14:41:20Z</time>
      </trkpt>
      <trkpt lat="43.38664" lon="6.63384">
        <ele>119.106033</ele>
        <time>2011-08-11T14:41:30Z</time>
      </trkpt>
      <trkpt lat="43.3862" lon="6.6339">
        <ele>110.852837</ele>
        <time>2011-08-11T14:42:15Z</time>
      </trkpt>
      <trkpt lat="43.38577" lon="6.6339">
        <ele>103.167503</ele>
        <time>2011-08-11T14:42:47Z</time>
      </trkpt>
      <trkpt lat="43.38539" lon="6.63395">
        <ele>100.227814</ele>
        <time>2011-08-11T14:43:04Z</time>
      </trkpt>
      <trkpt lat="43.38499" lon="6.63428">
        <ele>101.159454</ele>
        <time>2011-08-11T14:43:17Z</time>
      </trkpt>
      <trkpt lat="43.38465" lon="6.63472">
        <ele>100.638</ele>
        <time>2011-08-11T14:43:32Z</time>
      </trkpt>
      <trkpt lat="43.38432" lon="6.63513">
        <ele>99.6119</ele>
        <time>2011-08-11T14:43:47Z</time>
      </trkpt>
      <trkpt lat="43.38411" lon="6.63567">
        <ele>95.337097</ele>
        <time>2011-08-11T14:44:05Z</time>
      </trkpt>
      <trkpt lat="43.3838" lon="6.63615">
        <ele>94.927551</ele>
        <time>2011-08-11T14:44:21Z</time>
      </trkpt>
      <trkpt lat="43.38341" lon="6.63643">
        <ele>93.032867</ele>
        <time>2011-08-11T14:46:11Z</time>
      </trkpt>
      <trkpt lat="43.38303" lon="6.63685">
        <ele>90.253128</ele>
        <time>2011-08-11T14:47:05Z</time>
      </trkpt>
      <trkpt lat="43.3826" lon="6.63708">
        <ele>91.371513</ele>
        <time>2011-08-11T14:49:36Z</time>
      </trkpt>
      <trkpt lat="43.38215" lon="6.63685">
        <ele>94.033264</ele>
        <time>2011-08-11T14:49:58Z</time>
      </trkpt>
      <trkpt lat="43.38181" lon="6.63646">
        <ele>95.937653</ele>
        <time>2011-08-11T14:50:17Z</time>
      </trkpt>
      <trkpt lat="43.38157" lon="6.63591">
        <ele>97.397499</ele>
        <time>2011-08-11T14:50:35Z</time>
      </trkpt>
      <trkpt lat="43.38139" lon="6.63574">
        <ele>96.301125</ele>
        <time>2011-08-11T14:52:48Z</time>
      </trkpt>
      <trkpt lat="43.3812" lon="6.63554">
        <ele>100.851715</ele>
        <time>2011-08-11T14:55:53Z</time>
      </trkpt>
      <trkpt lat="43.38144" lon="6.63599">
        <ele>94.513748</ele>
        <time>2011-08-11T14:56:58Z</time>
      </trkpt>
      <trkpt lat="43.3814" lon="6.63656">
        <ele>98.235199</ele>
        <time>2011-08-11T14:57:20Z</time>
      </trkpt>
      <trkpt lat="43.38153" lon="6.63721">
        <ele>99.811188</ele>
        <time>2011-08-11T14:57:40Z</time>
      </trkpt>
      <trkpt lat="43.38177" lon="6.63774">
        <ele>103.33165</ele>
        <time>2011-08-11T14:58:26Z</time>
      </trkpt>
      <trkpt lat="43.3821" lon="6.63822">
        <ele>107.189095</ele>
        <time>2011-08-11T14:59:12Z</time>
      </trkpt>
      <trkpt lat="43.3824" lon="6.63862">
        <ele>108.487198</ele>
        <time>2011-08-11T14:59:54Z</time>
      </trkpt>
      <trkpt lat="43.38279" lon="6.63902">
        <ele>103.596825</ele>
        <time>2011-08-11T15:00:18Z</time>
      </trkpt>
      <trkpt lat="43.38254" lon="6.63879">
        <ele>107.589317</ele>
        <time>2011-08-11T15:00:50Z</time>
      </trkpt>
      <trkpt lat="43.38216" lon="6.63841">
        <ele>110.252151</ele>
        <time>2011-08-11T15:01:19Z</time>
      </trkpt>
      <trkpt lat="43.38172" lon="6.63815">
        <ele>113.800003</ele>
        <time>2011-08-11T15:04:13Z</time>
      </trkpt>
      <trkpt lat="43.38128" lon="6.63801">
        <ele>119.032127</ele>
        <time>2011-08-11T15:04:51Z</time>
      </trkpt>
      <trkpt lat="43.38085" lon="6.63782">
        <ele>123.238159</ele>
        <time>2011-08-11T15:06:00Z</time>
      </trkpt>
      <trkpt lat="43.38041" lon="6.63764">
        <ele>127.277657</ele>
        <time>2011-08-11T15:06:43Z</time>
      </trkpt>
      <trkpt lat="43.37998" lon="6.63748">
        <ele>130.104996</ele>
        <time>2011-08-11T15:07:28Z</time>
      </trkpt>
      <trkpt lat="43.37952" lon="6.63752">
        <ele>135.827255</ele>
        <time>2011-08-11T15:08:13Z</time>
      </trkpt>
      <trkpt lat="43.37906" lon="6.63759">
        <ele>142.399017</ele>
        <time>2011-08-11T15:08:57Z</time>
      </trkpt>
      <trkpt lat="43.3786" lon="6.63756">
        <ele>147.080002</ele>
        <time>2011-08-11T15:09:30Z</time>
      </trkpt>
      <trkpt lat="43.37812" lon="6.63753">
        <ele>153.626465</ele>
        <time>2011-08-11T15:10:08Z</time>
      </trkpt>
      <trkpt lat="43.37766" lon="6.63742">
        <ele>158.277069</ele>
        <time>2011-08-11T15:10:45Z</time>
      </trkpt>
      <trkpt lat="43.37747" lon="6.63696">
        <ele>155.32312</ele>
        <time>2011-08-11T15:11:17Z</time>
      </trkpt>
      <trkpt lat="43.3772" lon="6.63649">
        <ele>156.22818</ele>
        <time>2011-08-11T15:11:36Z</time>
      </trkpt>
      <trkpt lat="43.37717" lon="6.63596">
        <ele>156.51535</ele>
        <time>2011-08-11T15:11:53Z</time>
      </trkpt>
      <trkpt lat="43.37726" lon="6.63538">
        <ele>157.921234</ele>
        <time>2011-08-11T15:12:09Z</time>
      </trkpt>
      <trkpt lat="43.3774" lon="6.63475">
        <ele>158.566803</ele>
        <time>2011-08-11T15:12:26Z</time>
      </trkpt>
      <trkpt lat="43.37731" lon="6.63415">
        <ele>162.090164</ele>
        <time>2011-08-11T15:13:03Z</time>
      </trkpt>
      <trkpt lat="43.3771" lon="6.63359">
        <ele>163.337204</ele>
        <time>2011-08-11T15:14:48Z</time>
      </trkpt>
      <trkpt lat="43.37661" lon="6.6336">
        <ele>166.253281</ele>
        <time>2011-08-11T15:16:09Z</time>
      </trkpt>
      <trkpt lat="43.37613" lon="6.63358">
        <ele>169.21312</ele>
        <time>2011-08-11T15:16:38Z</time>
      </trkpt>
      <trkpt lat="43.37567" lon="6.63355">
        <ele>166.916245</ele>
        <time>2011-08-11T15:16:58Z</time>
      </trkpt>
      <trkpt lat="43.37522" lon="6.63329">
        <ele>164.08342</ele>
        <time>2011-08-11T15:17:22Z</time>
      </trkpt>
      <trkpt lat="43.37476" lon="6.63329">
        <ele>169.350266</ele>
        <time>2011-08-11T15:17:50Z</time>
      </trkpt>
      <trkpt lat="43.37436" lon="6.63349">
        <ele>176.139374</ele>
        <time>2011-08-11T15:18:19Z</time>
      </trkpt>
      <trkpt lat="43.37399" lon="6.63311">
        <ele>176.733475</ele>
        <time>2011-08-11T15:19:21Z</time>
      </trkpt>
      <trkpt lat="43.37352" lon="6.63309">
        <ele>185.611038</ele>
        <time>2011-08-11T15:20:37Z</time>
      </trkpt>
      <trkpt lat="43.37313" lon="6.63271">
        <ele>187.304993</ele>
        <time>2011-08-11T15:21:50Z</time>
      </trkpt>
      <trkpt lat="43.37271" lon="6.63242">
        <ele>192.778519</ele>
        <time>2011-08-11T15:22:50Z</time>
      </trkpt>
      <trkpt lat="43.37229" lon="6.63217">
        <ele>197.477676</ele>
        <time>2011-08-11T15:23:44Z</time>
      </trkpt>
      <trkpt lat="43.3718" lon="6.63204">
        <ele>204.26207</ele>
        <time>2011-08-11T15:24:18Z</time>
      </trkpt>
      <trkpt lat="43.3714" lon="6.63168">
        <ele>207.383194</ele>
        <time>2011-08-11T15:25:48Z</time>
      </trkpt>
      <trkpt lat="43.37105" lon="6.63121">
        <ele>210.333237</ele>
        <time>2011-08-11T15:26:20Z</time>
      </trkpt>
      <trkpt lat="43.37067" lon="6.63088">
        <ele>214.341354</ele>
        <time>2011-08-11T15:27:04Z</time>
      </trkpt>
      <trkpt lat="43.37021" lon="6.63066">
        <ele>218.774551</ele>
        <time>2011-08-11T15:28:04Z</time>
      </trkpt>
      <trkpt lat="43.36976" lon="6.63045">
        <ele>221.507492</ele>
        <time>2011-08-11T15:28:30Z</time>
      </trkpt>
      <trkpt lat="43.36931" lon="6.63018">
        <ele>225.117188</ele>
        <time>2011-08-11T15:29:34Z</time>
      </trkpt>
      <trkpt lat="43.36889" lon="6.62992">
        <ele>231.258179</ele>
        <time>2011-08-11T15:31:40Z</time>
      </trkpt>
      <trkpt lat="43.36846" lon="6.62964">
        <ele>240.763245</ele>
        <time>2011-08-11T15:32:24Z</time>
      </trkpt>
      <trkpt lat="43.36823" lon="6.62909">
        <ele>244.20575</ele>
        <time>2011-08-11T15:34:03Z</time>
      </trkpt>
      <trkpt lat="43.3679" lon="6.62867">
        <ele>251.697968</ele>
        <time>2011-08-11T15:35:02Z</time>
      </trkpt>
      <trkpt lat="43.36756" lon="6.62832">
        <ele>259.925354</ele>
        <time>2011-08-11T15:36:10Z</time>
      </trkpt>
      <trkpt lat="43.3674" lon="6.62785">
        <ele>267.912506</ele>
        <time>2011-08-11T15:38:00Z</time>
      </trkpt>
      <trkpt lat="43.36729" lon="6.62724">
        <ele>276.520844</ele>
        <time>2011-08-11T15:39:25Z</time>
      </trkpt>
      <trkpt lat="43.36703" lon="6.62712">
        <ele>280.828552</ele>
        <time>2011-08-11T15:52:08Z</time>
      </trkpt>
      <trkpt lat="43.36698" lon="6.62649">
        <ele>282.839508</ele>
        <time>2011-08-11T15:53:27Z</time>
      </trkpt>
      <trkpt lat="43.36714" lon="6.62601">
        <ele>287.719727</ele>
        <time>2011-08-11T15:54:54Z</time>
      </trkpt>
      <trkpt lat="43.36702" lon="6.62674">
        <ele>282.121368</ele>
        <time>2011-08-11T15:55:05Z</time>
      </trkpt>
      <trkpt lat="43.36683" lon="6.62721">
        <ele>280.225739</ele>
        <time>2011-08-11T15:55:17Z</time>
      </trkpt>
      <trkpt lat="43.36636" lon="6.62742">
        <ele>273.084991</ele>
        <time>2011-08-11T15:55:26Z</time>
      </trkpt>
      <trkpt lat="43.36611" lon="6.62802">
        <ele>272.57074</ele>
        <time>2011-08-11T15:55:34Z</time>
      </trkpt>
      <trkpt lat="43.36564" lon="6.62825">
        <ele>265.985229</ele>
        <time>2011-08-11T15:55:44Z</time>
      </trkpt>
      <trkpt lat="43.36509" lon="6.62811">
        <ele>257.170013</ele>
        <time>2011-08-11T15:55:52Z</time>
      </trkpt>
      <trkpt lat="43.36465" lon="6.62791">
        <ele>249.320007</ele>
        <time>2011-08-11T15:55:58Z</time>
      </trkpt>
      <trkpt lat="43.36418" lon="6.62788">
        <ele>245.196274</ele>
        <time>2011-08-11T15:56:08Z</time>
      </trkpt>
      <trkpt lat="43.36371" lon="6.62776">
        <ele>237.132553</ele>
        <time>2011-08-11T15:56:17Z</time>
      </trkpt>
      <trkpt lat="43.3632" lon="6.62773">
        <ele>230.562088</ele>
        <time>2011-08-11T15:56:25Z</time>
      </trkpt>
      <trkpt lat="43.36274" lon="6.62786">
        <ele>225.581558</ele>
        <time>2011-08-11T15:56:34Z</time>
      </trkpt>
      <trkpt lat="43.36231" lon="6.62816">
        <ele>221.627457</ele>
        <time>2011-08-11T15:56:45Z</time>
      </trkpt>
      <trkpt lat="43.3619" lon="6.62856">
        <ele>216.074524</ele>
        <time>2011-08-11T15:56:55Z</time>
      </trkpt>
      <trkpt lat="43.3616" lon="6.62909">
        <ele>214.031433</ele>
        <time>2011-08-11T15:57:03Z</time>
      </trkpt>
      <trkpt lat="43.36138" lon="6.62972">
        <ele>210.008774</ele>
        <time>2011-08-11T15:57:10Z</time>
      </trkpt>
      <trkpt lat="43.36155" lon="6.63032">
        <ele>214.080505</ele>
        <time>2011-08-11T15:57:18Z</time>
      </trkpt>
      <trkpt lat="43.36137" lon="6.63088">
        <ele>208.439667</ele>
        <time>2011-08-11T15:57:26Z</time>
      </trkpt>
      <trkpt lat="43.36108" lon="6.6314">
        <ele>207.079575</ele>
        <time>2011-08-11T15:57:35Z</time>
      </trkpt>
      <trkpt lat="43.36079" lon="6.63189">
        <ele>206.661911</ele>
        <time>2011-08-11T15:57:56Z</time>
      </trkpt>
      <trkpt lat="43.36051" lon="6.63196">
        <ele>206.65564</ele>
        <time>2011-08-11T15:59:04Z</time>
      </trkpt>
      <trkpt lat="43.36016" lon="6.63241">
        <ele>208.803116</ele>
        <time>2011-08-11T15:59:28Z</time>
      </trkpt>
      <trkpt lat="43.36015" lon="6.63301">
        <ele>211.11438</ele>
        <time>2011-08-11T15:59:46Z</time>
      </trkpt>
      <trkpt lat="43.36022" lon="6.63366">
        <ele>213.440521</ele>
        <time>2011-08-11T16:00:07Z</time>
      </trkpt>
      <trkpt lat="43.36029" lon="6.63432">
        <ele>215.252121</ele>
        <time>2011-08-11T16:00:29Z</time>
      </trkpt>
      <trkpt lat="43.36035" lon="6.63494">
        <ele>214.364136</ele>
        <time>2011-08-11T16:00:48Z</time>
      </trkpt>
      <trkpt lat="43.36024" lon="6.63557">
        <ele>216.883301</ele>
        <time>2011-08-11T16:01:02Z</time>
      </trkpt>
      <trkpt lat="43.36007" lon="6.63617">
        <ele>216.23526</ele>
        <time>2011-08-11T16:01:25Z</time>
      </trkpt>
      <trkpt lat="43.35961" lon="6.63648">
        <ele>224.572495</ele>
        <time>2011-08-11T16:01:39Z</time>
      </trkpt>
      <trkpt lat="43.35945" lon="6.63707">
        <ele>221.764542</ele>
        <time>2011-08-11T16:01:49Z</time>
      </trkpt>
      <trkpt lat="43.35969" lon="6.6375">
        <ele>218.826248</ele>
        <time>2011-08-11T16:02:00Z</time>
      </trkpt>
      <trkpt lat="43.36009" lon="6.63785">
        <ele>216.821762</ele>
        <time>2011-08-11T16:02:16Z</time>
      </trkpt>
      <trkpt lat="43.3604" lon="6.6384">
        <ele>214.223495</ele>
        <time>2011-08-11T16:02:30Z</time>
      </trkpt>
      <trkpt lat="43.36031" lon="6.63912">
        <ele>218.177505</ele>
        <time>2011-08-11T16:02:39Z</time>
      </trkpt>
      <trkpt lat="43.36039" lon="6.63973">
        <ele>212.979599</ele>
        <time>2011-08-11T16:02:47Z</time>
      </trkpt>
      <trkpt lat="43.36025" lon="6.64028">
        <ele>213.005035</ele>
        <time>2011-08-11T16:02:55Z</time>
      </trkpt>
      <trkpt lat="43.36017" lon="6.6409">
        <ele>211.9655</ele>
        <time>2011-08-11T16:03:03Z</time>
      </trkpt>
      <trkpt lat="43.36045" lon="6.64137">
        <ele>209.84404</ele>
        <time>2011-08-11T16:03:16Z</time>
      </trkpt>
      <trkpt lat="43.3607" lon="6.64192">
        <ele>211.277267</ele>
        <time>2011-08-11T16:03:33Z</time>
      </trkpt>
      <trkpt lat="43.36074" lon="6.64255">
        <ele>213.222397</ele>
        <time>2011-08-11T16:03:47Z</time>
      </trkpt>
      <trkpt lat="43.36054" lon="6.64312">
        <ele>216.009964</ele>
        <time>2011-08-11T16:04:08Z</time>
      </trkpt>
      <trkpt lat="43.36033" lon="6.64365">
        <ele>217.597717</ele>
        <time>2011-08-11T16:04:30Z</time>
      </trkpt>
      <trkpt lat="43.36003" lon="6.64417">
        <ele>222.866653</ele>
        <time>2011-08-11T16:04:56Z</time>
      </trkpt>
      <trkpt lat="43.36004" lon="6.64475">
        <ele>223.017593</ele>
        <time>2011-08-11T16:05:23Z</time>
      </trkpt>
      <trkpt lat="43.36002" lon="6.64539">
        <ele>225.748749</ele>
        <time>2011-08-11T16:06:12Z</time>
      </trkpt>
      <trkpt lat="43.35995" lon="6.64603">
        <ele>226.324875</ele>
        <time>2011-08-11T16:06:30Z</time>
      </trkpt>
      <trkpt lat="43.35965" lon="6.64649">
        <ele>226.111969</ele>
        <time>2011-08-11T16:06:43Z</time>
      </trkpt>
      <trkpt lat="43.35919" lon="6.6468">
        <ele>227.814133</ele>
        <time>2011-08-11T16:06:52Z</time>
      </trkpt>
      <trkpt lat="43.35884" lon="6.64725">
        <ele>228.597031</ele>
        <time>2011-08-11T16:07:01Z</time>
      </trkpt>
      <trkpt lat="43.35845" lon="6.64759">
        <ele>230.088287</ele>
        <time>2011-08-11T16:07:16Z</time>
      </trkpt>
      <trkpt lat="43.35816" lon="6.64807">
        <ele>230.637436</ele>
        <time>2011-08-11T16:07:28Z</time>
      </trkpt>
      <trkpt lat="43.35821" lon="6.64865">
        <ele>231.711685</ele>
        <time>2011-08-11T16:07:40Z</time>
      </trkpt>
      <trkpt lat="43.35839" lon="6.64924">
        <ele>233.592239</ele>
        <time>2011-08-11T16:07:59Z</time>
      </trkpt>
      <trkpt lat="43.35857" lon="6.6498">
        <ele>232.448883</ele>
        <time>2011-08-11T16:08:15Z</time>
      </trkpt>
      <trkpt lat="43.35902" lon="6.65009">
        <ele>231.005005</ele>
        <time>2011-08-11T16:08:26Z</time>
      </trkpt>
      <trkpt lat="43.35949" lon="6.65025">
        <ele>227.306427</ele>
        <time>2011-08-11T16:08:35Z</time>
      </trkpt>
      <trkpt lat="43.35995" lon="6.65032">
        <ele>225.585495</ele>
        <time>2011-08-11T16:08:42Z</time>
      </trkpt>
      <trkpt lat="43.3604" lon="6.65058">
        <ele>222.841995</ele>
        <time>2011-08-11T16:08:49Z</time>
      </trkpt>
      <trkpt lat="43.36088" lon="6.65066">
        <ele>224.834198</ele>
        <time>2011-08-11T16:08:57Z</time>
      </trkpt>
      <trkpt lat="43.3613" lon="6.65099">
        <ele>222.36113</ele>
        <time>2011-08-11T16:09:06Z</time>
      </trkpt>
      <trkpt lat="43.36157" lon="6.65155">
        <ele>218.864838</ele>
        <time>2011-08-11T16:09:19Z</time>
      </trkpt>
      <trkpt lat="43.36187" lon="6.65204">
        <ele>217.565079</ele>
        <time>2011-08-11T16:10:06Z</time>
      </trkpt>
      <trkpt lat="43.36204" lon="6.65265">
        <ele>213.39595</ele>
        <time>2011-08-11T16:10:15Z</time>
      </trkpt>
      <trkpt lat="43.36188" lon="6.65332">
        <ele>212.570511</ele>
        <time>2011-08-11T16:10:22Z</time>
      </trkpt>
      <trkpt lat="43.36173" lon="6.65394">
        <ele>209.474213</ele>
        <time>2011-08-11T16:10:28Z</time>
      </trkpt>
      <trkpt lat="43.3617" lon="6.65455">
        <ele>208.710007</ele>
        <time>2011-08-11T16:10:35Z</time>
      </trkpt>
      <trkpt lat="43.36182" lon="6.65513">
        <ele>206.668747</ele>
        <time>2011-08-11T16:10:44Z</time>
      </trkpt>
      <trkpt lat="43.36189" lon="6.65577">
        <ele>208.699097</ele>
        <time>2011-08-11T16:10:54Z</time>
      </trkpt>
      <trkpt lat="43.36182" lon="6.65642">
        <ele>216.387497</ele>
        <time>2011-08-11T16:11:04Z</time>
      </trkpt>
      <trkpt lat="43.36227" lon="6.65639">
        <ele>210.013672</ele>
        <time>2011-08-11T16:11:19Z</time>
      </trkpt>
      <trkpt lat="43.36254" lon="6.65693">
        <ele>213.400894</ele>
        <time>2011-08-11T16:11:38Z</time>
      </trkpt>
      <trkpt lat="43.36301" lon="6.6569">
        <ele>207.128845</ele>
        <time>2011-08-11T16:11:50Z</time>
      </trkpt>
      <trkpt lat="43.3633" lon="6.65642">
        <ele>204.569809</ele>
        <time>2011-08-11T16:11:58Z</time>
      </trkpt>
      <trkpt lat="43.36376" lon="6.65626">
        <ele>198.679733</ele>
        <time>2011-08-11T16:12:10Z</time>
      </trkpt>
      <trkpt lat="43.36367" lon="6.65681">
        <ele>193.49585</ele>
        <time>2011-08-11T16:12:25Z</time>
      </trkpt>
      <trkpt lat="43.36348" lon="6.6574">
        <ele>187.547241</ele>
        <time>2011-08-11T16:12:37Z</time>
      </trkpt>
      <trkpt lat="43.36312" lon="6.65782">
        <ele>188.180527</ele>
        <time>2011-08-11T16:12:48Z</time>
      </trkpt>
      <trkpt lat="43.36318" lon="6.65842">
        <ele>183.356812</ele>
        <time>2011-08-11T16:13:00Z</time>
      </trkpt>
      <trkpt lat="43.36353" lon="6.65841">
        <ele>181.549408</ele>
        <time>2011-08-11T16:13:15Z</time>
      </trkpt>
      <trkpt lat="43.36399" lon="6.65833">
        <ele>185.003754</ele>
        <time>2011-08-11T16:13:52Z</time>
      </trkpt>
      <trkpt lat="43.36444" lon="6.65837">
        <ele>190.765381</ele>
        <time>2011-08-11T16:14:21Z</time>
      </trkpt>
      <trkpt lat="43.3649" lon="6.65847">
        <ele>193.1483</ele>
        <time>2011-08-11T16:14:47Z</time>
      </trkpt>
      <trkpt lat="43.36529" lon="6.65884">
        <ele>191.869247</ele>
        <time>2011-08-11T16:15:04Z</time>
      </trkpt>
      <trkpt lat="43.36557" lon="6.6594">
        <ele>187.07637</ele>
        <time>2011-08-11T16:15:17Z</time>
      </trkpt>
      <trkpt lat="43.36559" lon="6.66005">
        <ele>184.743362</ele>
        <time>2011-08-11T16:15:26Z</time>
      </trkpt>
      <trkpt lat="43.36537" lon="6.66061">
        <ele>189.386322</ele>
        <time>2011-08-11T16:15:34Z</time>
      </trkpt>
      <trkpt lat="43.3652" lon="6.66119">
        <ele>194.597961</ele>
        <time>2011-08-11T16:15:43Z</time>
      </trkpt>
      <trkpt lat="43.36564" lon="6.66103">
        <ele>187.360443</ele>
        <time>2011-08-11T16:17:47Z</time>
      </trkpt>
      <trkpt lat="43.36613" lon="6.66107">
        <ele>186.628555</ele>
        <time>2011-08-11T16:18:03Z</time>
      </trkpt>
      <trkpt lat="43.36644" lon="6.66158">
        <ele>192.312469</ele>
        <time>2011-08-11T16:18:17Z</time>
      </trkpt>
      <trkpt lat="43.36675" lon="6.66211">
        <ele>191.732986</ele>
        <time>2011-08-11T16:18:30Z</time>
      </trkpt>
      <trkpt lat="43.36673" lon="6.66269">
        <ele>189.659637</ele>
        <time>2011-08-11T16:19:25Z</time>
      </trkpt>
      <trkpt lat="43.36663" lon="6.66329">
        <ele>186.638123</ele>
        <time>2011-08-11T16:19:35Z</time>
      </trkpt>
      <trkpt lat="43.36664" lon="6.66396">
        <ele>183.471802</ele>
        <time>2011-08-11T16:19:44Z</time>
      </trkpt>
      <trkpt lat="43.3667" lon="6.66466">
        <ele>176.707031</ele>
        <time>2011-08-11T16:19:52Z</time>
      </trkpt>
      <trkpt lat="43.36671" lon="6.66536">
        <ele>171.233063</ele>
        <time>2011-08-11T16:19:59Z</time>
      </trkpt>
      <trkpt lat="43.36678" lon="6.66603">
        <ele>164.702484</ele>
        <time>2011-08-11T16:20:05Z</time>
      </trkpt>
      <trkpt lat="43.36665" lon="6.66664">
        <ele>163.278656</ele>
        <time>2011-08-11T16:20:12Z</time>
      </trkpt>
      <trkpt lat="43.36617" lon="6.66664">
        <ele>166.092606</ele>
        <time>2011-08-11T16:20:24Z</time>
      </trkpt>
      <trkpt lat="43.36574" lon="6.66626">
        <ele>167.780746</ele>
        <time>2011-08-11T16:20:34Z</time>
      </trkpt>
      <trkpt lat="43.36539" lon="6.66584">
        <ele>170.512497</ele>
        <time>2011-08-11T16:20:43Z</time>
      </trkpt>
      <trkpt lat="43.36501" lon="6.66552">
        <ele>178.310852</ele>
        <time>2011-08-11T16:20:52Z</time>
      </trkpt>
      <trkpt lat="43.36509" lon="6.66614">
        <ele>170.967972</ele>
        <time>2011-08-11T16:21:05Z</time>
      </trkpt>
      <trkpt lat="43.36512" lon="6.66677">
        <ele>170.455872</ele>
        <time>2011-08-11T16:21:17Z</time>
      </trkpt>
      <trkpt lat="43.36515" lon="6.66738">
        <ele>176.380356</ele>
        <time>2011-08-11T16:21:40Z</time>
      </trkpt>
      <trkpt lat="43.36533" lon="6.66794">
        <ele>176.007721</ele>
        <time>2011-08-11T16:22:02Z</time>
      </trkpt>
      <trkpt lat="43.3655" lon="6.66854">
        <ele>179.255341</ele>
        <time>2011-08-11T16:22:28Z</time>
      </trkpt>
      <trkpt lat="43.36568" lon="6.66912">
        <ele>176.067505</ele>
        <time>2011-08-11T16:22:52Z</time>
      </trkpt>
      <trkpt lat="43.36577" lon="6.66972">
        <ele>169.80986</ele>
        <time>2011-08-11T16:23:11Z</time>
      </trkpt>
      <trkpt lat="43.36534" lon="6.67004">
        <ele>172.394745</ele>
        <time>2011-08-11T16:23:21Z</time>
      </trkpt>
      <trkpt lat="43.36488" lon="6.67027">
        <ele>178.602554</ele>
        <time>2011-08-11T16:23:28Z</time>
      </trkpt>
      <trkpt lat="43.36456" lon="6.6707">
        <ele>178.067474</ele>
        <time>2011-08-11T16:23:38Z</time>
      </trkpt>
      <trkpt lat="43.36431" lon="6.67117">
        <ele>183.037201</ele>
        <time>2011-08-11T16:23:55Z</time>
      </trkpt>
      <trkpt lat="43.36415" lon="6.67177">
        <ele>173.352814</ele>
        <time>2011-08-11T16:24:04Z</time>
      </trkpt>
      <trkpt lat="43.36396" lon="6.67235">
        <ele>164.451202</ele>
        <time>2011-08-11T16:24:11Z</time>
      </trkpt>
      <trkpt lat="43.36376" lon="6.67288">
        <ele>161.2854</ele>
        <time>2011-08-11T16:24:25Z</time>
      </trkpt>
      <trkpt lat="43.36344" lon="6.67313">
        <ele>158.388245</ele>
        <time>2011-08-11T16:24:41Z</time>
      </trkpt>
    </trkseg>
  </trk>
</gpx>